Time;durP1;ratioP1;P1;durP2;ratioP2;P2;SDS_P1;SDS_P2;PMS_P1;PMS_P2;Temp;Humidity;BMP_temperature;BMP_pressure;BME280_temperature;BME280_humidity;BME280_pressure;Samples;Min_cycle;Max_cycle;Signal;HPM_P1;HPM_P2
2021/12/20 00:01:37;;;;;;;132.07;35.13;;;1.20;99.90;;;;;;6214942;23;20028;-84
2021/12/20 00:04:28;;;;;;;136.77;35.20;;;1.20;99.90;;;;;;6212222;23;20028;-83
2021/12/20 00:07:16;;;;;;;123.38;36.15;;;1.20;99.90;;;;;;6217417;23;20154;-83
2021/12/20 00:10:04;;;;;;;128.30;34.83;;;1.20;99.90;;;;;;6194692;23;20024;-83
2021/12/20 00:12:54;;;;;;;121.47;33.03;;;1.20;99.90;;;;;;6214024;23;20039;-84
2021/12/20 00:15:42;;;;;;;124.20;32.92;;;1.20;99.90;;;;;;6214096;23;20033;-84
2021/12/20 00:18:29;;;;;;;114.75;32.63;;;1.20;99.90;;;;;;6194836;23;20328;-82
2021/12/20 00:21:19;;;;;;;131.23;32.55;;;1.20;99.90;;;;;;6228153;23;20044;-85
2021/12/20 00:24:07;;;;;;;117.22;33.08;;;1.20;99.90;;;;;;6186194;23;20071;-82
2021/12/20 00:26:57;;;;;;;113.88;32.72;;;1.20;99.90;;;;;;6209093;23;20360;-82
2021/12/20 00:29:49;;;;;;;118.47;33.05;;;1.10;99.90;;;;;;6226961;23;20116;-84
2021/12/20 00:32:40;;;;;;;124.15;33.67;;;1.10;99.90;;;;;;6234655;23;20044;-82
2021/12/20 00:35:28;;;;;;;126.53;32.90;;;1.10;99.90;;;;;;6231194;23;20028;-82
2021/12/20 00:41:26;;;;;;;124.78;32.65;;;1.00;99.90;;;;;;6237876;23;20009;-84
2021/12/20 00:44:13;;;;;;;125.38;32.63;;;1.00;99.90;;;;;;6229856;23;20322;-84
2021/12/20 00:47:15;;;;;;;119.93;32.47;;;1.00;99.90;;;;;;6229702;23;20021;-82
2021/12/20 00:50:09;;;;;;;119.07;31.70;;;1.00;99.90;;;;;;6203381;23;20067;-84
2021/12/20 00:52:58;;;;;;;117.65;30.85;;;1.00;99.90;;;;;;6214257;23;20450;-81
2021/12/20 00:55:48;;;;;;;120.22;31.90;;;0.90;99.90;;;;;;6215277;23;20036;-84
2021/12/20 00:58:42;;;;;;;118.57;32.63;;;1.00;99.90;;;;;;6217053;23;20024;-86
2021/12/20 01:01:32;;;;;;;111.20;32.97;;;1.00;99.90;;;;;;6214044;23;20024;-85
2021/12/20 01:04:19;;;;;;;126.30;35.30;;;1.00;99.90;;;;;;6215883;23;20355;-85
2021/12/20 01:07:07;;;;;;;110.95;34.92;;;1.00;99.90;;;;;;6212497;23;20025;-84
2021/12/20 01:09:58;;;;;;;135.35;36.95;;;1.10;99.90;;;;;;6213615;23;20024;-83
2021/12/20 01:12:50;;;;;;;133.70;36.10;;;1.10;99.90;;;;;;6216462;23;20036;-81
2021/12/20 01:15:45;;;;;;;127.30;36.22;;;1.10;99.90;;;;;;6198118;23;20060;-84
2021/12/20 01:18:35;;;;;;;117.45;34.30;;;1.10;99.90;;;;;;6216365;23;20128;-84
2021/12/20 01:21:25;;;;;;;136.67;38.20;;;1.00;99.90;;;;;;6217186;23;20020;-85
2021/12/20 01:24:15;;;;;;;136.57;36.70;;;1.00;99.90;;;;;;6215118;23;20667;-84
2021/12/20 01:27:04;;;;;;;137.00;36.58;;;1.00;99.90;;;;;;6218601;23;20025;-85
2021/12/20 01:29:51;;;;;;;139.30;37.90;;;1.10;99.90;;;;;;6216748;23;20049;-84
2021/12/20 01:32:43;;;;;;;130.13;37.03;;;1.10;99.90;;;;;;6218380;23;20025;-83
2021/12/20 01:35:30;;;;;;;129.75;37.55;;;1.10;99.90;;;;;;6217384;23;20034;-82
2021/12/20 01:38:23;;;;;;;129.90;38.08;;;1.10;99.90;;;;;;6216364;23;20024;-84
2021/12/20 01:41:13;;;;;;;131.57;37.90;;;1.10;99.90;;;;;;6215234;23;20608;-85
2021/12/20 01:44:03;;;;;;;130.77;37.92;;;1.20;99.90;;;;;;6215264;23;20024;-84
2021/12/20 01:46:52;;;;;;;128.15;37.10;;;1.20;99.90;;;;;;6216932;23;20207;-84
2021/12/20 01:49:58;;;;;;;129.63;38.42;;;1.20;99.90;;;;;;6216910;23;20024;-84
2021/12/20 01:52:45;;;;;;;118.85;37.35;;;1.20;99.90;;;;;;6214353;23;20094;-82
2021/12/20 01:55:33;;;;;;;127.78;39.00;;;1.20;99.90;;;;;;6218527;22;20036;-85
2021/12/20 01:58:22;;;;;;;124.03;37.78;;;1.20;99.90;;;;;;6215469;23;20102;-84
2021/12/20 02:04:03;;;;;;;125.30;36.15;;;1.20;99.90;;;;;;6219004;22;20328;-81
2021/12/20 02:06:53;;;;;;;116.05;34.63;;;1.20;99.90;;;;;;6214483;23;20336;-83
2021/12/20 02:09:40;;;;;;;108.55;34.05;;;1.20;99.90;;;;;;6214645;23;20111;-83
2021/12/20 02:12:29;;;;;;;121.75;36.95;;;1.10;99.90;;;;;;6212615;23;20440;-84
2021/12/20 02:15:17;;;;;;;122.65;35.97;;;1.10;99.90;;;;;;6211249;23;20115;-83
2021/12/20 02:18:06;;;;;;;117.18;36.05;;;1.10;99.90;;;;;;6194273;23;20047;-84
2021/12/20 02:20:56;;;;;;;114.38;35.00;;;1.10;99.90;;;;;;6215085;23;20072;-83
2021/12/20 02:23:46;;;;;;;99.60;33.35;;;1.10;99.90;;;;;;6215269;23;20025;-83
2021/12/20 02:26:35;;;;;;;106.43;33.33;;;1.10;99.90;;;;;;6215439;23;20073;-83
2021/12/20 02:29:42;;;;;;;109.30;34.50;;;1.20;99.90;;;;;;6213593;23;20058;-83
2021/12/20 02:38:59;;;;;;;104.95;33.33;;;1.10;99.90;;;;;;6212772;23;19924;-83
2021/12/20 02:41:47;;;;;;;91.47;30.48;;;1.10;99.90;;;;;;6221699;23;20161;-83
2021/12/20 02:44:37;;;;;;;103.30;33.47;;;1.10;99.90;;;;;;6227806;23;20021;-83
2021/12/20 02:47:28;;;;;;;94.80;31.73;;;1.10;99.90;;;;;;6229220;23;20059;-84
2021/12/20 02:50:16;;;;;;;100.13;32.95;;;1.10;99.90;;;;;;6226741;23;20048;-83
2021/12/20 02:53:04;;;;;;;108.13;33.33;;;1.10;99.90;;;;;;6206856;23;20029;-82
2021/12/20 02:55:51;;;;;;;94.55;33.17;;;1.10;99.90;;;;;;6229209;23;20025;-82
2021/12/20 02:58:40;;;;;;;106.63;32.60;;;1.10;99.90;;;;;;6227950;23;20021;-83
2021/12/20 03:01:28;;;;;;;99.95;33.38;;;1.10;99.90;;;;;;6208833;23;20087;-84
2021/12/20 03:04:16;;;;;;;113.97;34.33;;;1.10;99.90;;;;;;6231073;23;20078;-82
2021/12/20 03:07:07;;;;;;;106.47;35.10;;;1.10;99.90;;;;;;6208798;23;20071;-82
2021/12/20 03:10:01;;;;;;;101.55;32.33;;;1.10;99.90;;;;;;6239361;23;20017;-84
2021/12/20 03:12:50;;;;;;;116.65;36.53;;;1.00;99.90;;;;;;6239220;22;20162;-84
2021/12/20 03:15:39;;;;;;;129.30;36.40;;;1.00;99.90;;;;;;6238086;23;20068;-84
2021/12/20 03:18:26;;;;;;;123.78;34.47;;;0.90;99.90;;;;;;6233293;23;20039;-82
2021/12/20 03:21:14;;;;;;;112.55;36.45;;;0.90;99.90;;;;;;6213417;23;20382;-83
2021/12/20 03:24:03;;;;;;;104.20;34.25;;;0.90;99.90;;;;;;6218529;23;20032;-82
2021/12/20 03:26:50;;;;;;;121.95;35.67;;;0.80;99.90;;;;;;6239001;23;20013;-81
2021/12/20 03:29:41;;;;;;;129.43;37.45;;;0.80;99.90;;;;;;6237243;23;20028;-82
2021/12/20 03:32:28;;;;;;;141.85;36.67;;;0.90;99.90;;;;;;6219126;23;20080;-82
2021/12/20 03:35:18;;;;;;;119.78;37.67;;;0.90;99.90;;;;;;6217354;23;20012;-82
2021/12/20 03:38:10;;;;;;;135.63;38.17;;;1.00;99.90;;;;;;6196565;23;20028;-84
2021/12/20 03:40:57;;;;;;;129.35;37.88;;;1.00;99.90;;;;;;6219331;23;20025;-83
2021/12/20 03:43:47;;;;;;;115.63;37.40;;;1.00;99.90;;;;;;6240296;23;20013;-85
2021/12/20 03:46:35;;;;;;;128.82;38.50;;;1.00;99.90;;;;;;6237523;23;20056;-84
2021/12/20 03:49:22;;;;;;;126.38;38.63;;;1.10;99.90;;;;;;6233811;23;20043;-85
2021/12/20 03:52:10;;;;;;;132.07;40.83;;;1.10;99.90;;;;;;6239145;23;20024;-83
2021/12/20 03:55:00;;;;;;;120.05;37.85;;;1.10;99.90;;;;;;6236642;23;20052;-84
2021/12/20 03:57:48;;;;;;;121.75;38.25;;;1.20;99.90;;;;;;6253136;22;20028;-83
2021/12/20 04:00:39;;;;;;;128.65;37.20;;;1.20;99.90;;;;;;6248832;22;20008;-83
2021/12/20 04:03:31;;;;;;;123.63;37.63;;;1.10;99.90;;;;;;6269383;22;20008;-82
2021/12/20 04:06:22;;;;;;;123.93;37.90;;;1.20;99.90;;;;;;6247709;22;20061;-83
2021/12/20 04:09:11;;;;;;;114.15;35.70;;;1.20;99.90;;;;;;6250377;22;20152;-83
2021/12/20 04:11:59;;;;;;;116.72;36.45;;;1.20;99.90;;;;;;6236254;23;20020;-82
2021/12/20 04:14:47;;;;;;;138.35;37.25;;;1.20;99.90;;;;;;6237894;23;20020;-83
2021/12/20 04:17:35;;;;;;;116.68;36.65;;;1.20;99.90;;;;;;6194127;23;20175;-83
2021/12/20 04:20:22;;;;;;;130.80;37.65;;;1.20;99.90;;;;;;6233665;23;20031;-83
2021/12/20 04:23:12;;;;;;;117.00;35.53;;;1.10;99.90;;;;;;6209924;23;20028;-82
2021/12/20 04:26:00;;;;;;;107.68;36.20;;;1.10;99.90;;;;;;6222455;23;20043;-84
2021/12/20 04:28:51;;;;;;;114.13;34.45;;;1.10;99.90;;;;;;6222956;23;20020;-85
2021/12/20 04:31:43;;;;;;;122.63;34.28;;;1.10;99.90;;;;;;6184061;23;20023;-84
2021/12/20 04:34:30;;;;;;;115.85;35.83;;;1.10;99.90;;;;;;6201137;23;20028;-85
2021/12/20 04:37:19;;;;;;;123.88;36.42;;;1.10;99.90;;;;;;6202157;23;20102;-85
2021/12/20 04:40:10;;;;;;;131.02;38.97;;;1.10;99.90;;;;;;6244888;23;20078;-85
2021/12/20 04:42:59;;;;;;;124.75;37.17;;;1.10;99.90;;;;;;6221995;23;20039;-84
2021/12/20 04:45:48;;;;;;;126.65;37.40;;;1.10;99.90;;;;;;6200458;23;20091;-85
2021/12/20 04:48:36;;;;;;;133.43;38.88;;;1.10;99.90;;;;;;6221992;23;20043;-85
2021/12/20 04:51:23;;;;;;;145.45;39.38;;;1.10;99.90;;;;;;6201887;23;20384;-85
2021/12/20 04:54:10;;;;;;;145.30;40.65;;;1.10;99.90;;;;;;6220115;23;20411;-83
2021/12/20 04:56:58;;;;;;;136.00;40.13;;;1.10;99.90;;;;;;6200045;22;20042;-83
2021/12/20 04:59:45;;;;;;;143.93;41.08;;;1.10;99.90;;;;;;6201006;23;20027;-82
2021/12/20 05:02:51;;;;;;;136.25;40.33;;;1.10;99.90;;;;;;6181930;23;20020;-82
2021/12/20 05:05:39;;;;;;;146.82;40.42;;;1.10;99.90;;;;;;6223166;23;20020;-83
2021/12/20 05:08:33;;;;;;;151.70;41.58;;;1.10;99.90;;;;;;6220986;23;20024;-83
2021/12/20 05:16:21;;;;;;;;;;;;;;;;;;;;;
2021/12/20 05:20:31;;;;;;;;;;;;;;;;;;;;;
2021/12/20 05:24:53;;;;;;;;;;;;;;;;;;;;;
2021/12/20 05:29:00;;;;;;;;;;;;;;;;;;;;;
2021/12/20 05:40:47;;;;;;;139.68;39.40;;;1.20;99.90;;;;;;6019308;23;20022;-84
2021/12/20 05:43:37;;;;;;;148.07;42.05;;;1.20;99.90;;;;;;6090171;23;20026;-85
2021/12/20 05:46:57;;;;;;;;;;;;;;;;;;;;;
2021/12/20 05:51:46;;;;;;;;;;;;;;;;;;;;;
2021/12/20 05:55:00;;;;;;;139.27;38.78;;;1.20;99.90;;;;;;6095414;23;20025;-86
2021/12/20 06:01:55;;;;;;;130.85;36.30;;;1.20;99.90;;;;;;6035823;23;20015;-86
2021/12/20 06:04:56;;;;;;;132.07;38.17;;;1.20;99.90;;;;;;6016377;23;20027;-89
2021/12/20 06:08:26;;;;;;;125.13;36.90;;;1.10;99.90;;;;;;5968831;23;20039;-88
2021/12/20 06:16:17;;;;;;;124.03;35.13;;;1.10;99.90;;;;;;5923207;24;20263;-84
2021/12/20 06:24:20;;;;;;;;;;;;;;;;;;;;;
2021/12/20 06:28:29;;;;;;;;;;;;;;;;;;;;;
2021/12/20 06:32:03;;;;;;;127.18;36.60;;;1.10;99.90;;;;;;6105599;23;20037;-83
2021/12/20 06:44:34;;;;;;;;;;;;;;;;;;;;;
2021/12/20 06:56:12;;;;;;;114.82;33.83;;;1.20;99.90;;;;;;5751546;24;20055;-82
2021/12/20 07:40:11;;;;;;;111.82;33.17;;;1.10;99.90;;;;;;6215112;23;19916;-83
2021/12/20 07:43:20;;;;;;;118.20;34.22;;;1.10;99.90;;;;;;6104635;23;20020;-89
2021/12/20 07:46:18;;;;;;;122.10;35.10;;;1.10;99.90;;;;;;6182935;23;20036;-87
2021/12/20 07:49:20;;;;;;;116.53;35.75;;;1.20;99.90;;;;;;6202661;23;20084;-85
2021/12/20 07:52:11;;;;;;;118.55;36.72;;;1.20;99.90;;;;;;6203421;23;20025;-86
2021/12/20 07:55:03;;;;;;;114.55;36.15;;;1.20;99.90;;;;;;6198962;23;20028;-86
2021/12/20 07:57:53;;;;;;;115.65;36.88;;;1.30;99.90;;;;;;6175963;23;20087;-86
2021/12/20 08:00:53;;;;;;;148.20;56.05;;;1.30;99.90;;;;;;6175375;23;20083;-87
2021/12/20 08:04:17;;;;;;;154.85;63.72;;;1.40;99.90;;;;;;6090965;23;20050;-85
2021/12/20 08:07:07;;;;;;;130.48;43.95;;;1.40;99.90;;;;;;6090570;23;20026;-85
2021/12/20 08:09:58;;;;;;;106.80;36.17;;;1.40;99.90;;;;;;6089428;23;20097;-85
2021/12/20 08:12:48;;;;;;;119.38;39.15;;;1.50;99.90;;;;;;6091393;23;20018;-87
2021/12/20 08:15:39;;;;;;;118.75;36.67;;;1.50;99.90;;;;;;6090152;23;20052;-85
2021/12/20 08:18:29;;;;;;;104.32;34.65;;;1.60;99.90;;;;;;6081125;23;20029;-85
2021/12/20 08:21:23;;;;;;;114.18;35.95;;;1.50;99.90;;;;;;6083377;23;20071;-84
2021/12/20 08:24:11;;;;;;;113.28;34.35;;;1.50;99.90;;;;;;6085537;23;20026;-88
2021/12/20 08:27:10;;;;;;;111.93;35.58;;;1.60;99.90;;;;;;6086837;23;20027;-83
2021/12/20 08:30:15;;;;;;;;;;;1.60;99.90;;;;;;6224894;23;20016;-85
2021/12/20 08:33:19;;;;;;;100.00;33.15;;;1.60;99.90;;;;;;6203257;23;19916;-86
2021/12/20 08:36:27;;;;;;;111.95;36.33;;;1.70;99.90;;;;;;6191625;23;20088;-85
2021/12/20 08:39:23;;;;;;;99.13;34.03;;;1.70;99.90;;;;;;6204677;23;20044;-86
2021/12/20 08:42:11;;;;;;;101.45;34.30;;;1.70;99.90;;;;;;6220200;23;20031;-86
2021/12/20 08:45:04;;;;;;;90.82;34.70;;;1.70;99.90;;;;;;6201708;23;20047;-86
2021/12/20 08:47:55;;;;;;;94.32;34.15;;;1.70;99.90;;;;;;6221707;23;20059;-88
2021/12/20 08:50:53;;;;;;;102.28;34.10;;;1.80;99.90;;;;;;6228239;23;20104;-89
2021/12/20 08:53:57;;;;;;;90.18;33.42;;;1.90;99.90;;;;;;6210447;23;20035;-87
2021/12/20 08:56:51;;;;;;;83.85;29.63;;;2.00;99.90;;;;;;6219732;23;20028;-86
2021/12/20 08:59:43;;;;;;;;;;;2.10;99.90;;;;;;6219512;23;20035;-87
2021/12/20 09:02:31;;;;;;;70.30;27.35;;;2.20;99.90;;;;;;6219098;23;19982;-85
2021/12/20 09:05:30;;;;;;;75.53;29.45;;;2.30;99.90;;;;;;6218367;23;20605;-82
2021/12/20 09:20:37;;;;;;;60.90;26.42;;;2.80;99.90;;;;;;6138207;23;20026;-85
2021/12/20 09:23:43;;;;;;;61.58;25.52;;;2.90;99.90;;;;;;6130429;23;20014;-85
2021/12/20 09:27:03;;;;;;;51.90;24.23;;;3.00;99.90;;;;;;6186122;23;20028;-85
2021/12/20 09:29:56;;;;;;;47.40;21.80;;;3.10;99.90;;;;;;6227773;23;20035;-85
2021/12/20 09:32:44;;;;;;;54.13;23.75;;;3.10;99.90;;;;;;6181655;23;20032;-84
2021/12/20 09:35:36;;;;;;;52.15;24.60;;;3.20;99.90;;;;;;6203406;23;20028;-87
2021/12/20 09:38:29;;;;;;;47.55;22.23;;;3.10;99.90;;;;;;6221331;23;20139;-81
2021/12/20 09:41:59;;;;;;;47.08;24.70;;;3.10;99.90;;;;;;6220964;23;20970;-83
2021/12/20 09:44:28;;;;;;;52.45;23.45;;;3.00;99.90;;;;;;6223902;23;20096;-82
2021/12/20 09:47:39;;;;;;;51.72;24.65;;;3.00;99.90;;;;;;6227598;23;20364;-82
2021/12/20 09:50:40;;;;;;;50.25;24.52;;;3.00;99.90;;;;;;6207452;23;20060;-81
2021/12/20 09:53:31;;;;;;;56.28;25.70;;;3.00;99.90;;;;;;6223004;23;20047;-83
2021/12/20 09:56:21;;;;;;;54.92;25.80;;;3.00;99.90;;;;;;6246802;23;20044;-83
2021/12/20 09:59:17;;;;;;;53.28;25.38;;;3.10;99.90;;;;;;6243954;23;20039;-84
2021/12/20 10:02:11;;;;;;;54.20;25.30;;;3.10;99.90;;;;;;6243911;23;20095;-81
2021/12/20 10:05:06;;;;;;;52.90;24.15;;;3.00;99.90;;;;;;6203150;23;20166;-82
2021/12/20 10:08:11;;;;;;;;;;;;;;;;;;;;;
2021/12/20 10:11:19;;;;;;;59.67;27.42;;;3.00;99.90;;;;;;6226292;23;20032;-83
2021/12/20 10:14:40;;;;;;;52.92;25.23;;;3.00;99.90;;;;;;6201456;23;20032;-82
2021/12/20 10:18:04;;;;;;;55.72;26.15;;;3.00;99.90;;;;;;6225072;23;20376;-80
2021/12/20 10:21:02;;;;;;;67.20;27.25;;;3.00;99.90;;;;;;6220105;23;20094;-80
2021/12/20 10:23:56;;;;;;;65.60;29.10;;;3.00;99.90;;;;;;6223291;23;20094;-85
2021/12/20 10:26:50;;;;;;;73.43;31.23;;;3.00;99.90;;;;;;6224406;23;20035;-84
2021/12/20 10:29:38;;;;;;;61.72;30.02;;;3.10;99.90;;;;;;6205932;23;20032;-82
2021/12/20 10:32:43;;;;;;;68.03;30.35;;;3.20;99.90;;;;;;6220630;23;20032;-80
2021/12/20 10:35:39;;;;;;;73.07;31.02;;;3.20;99.90;;;;;;6221061;23;20020;-83
2021/12/20 10:38:38;;;;;;;69.68;29.63;;;3.30;99.90;;;;;;6243717;23;20039;-82
2021/12/20 10:49:31;;;;;;;57.15;28.15;;;3.50;99.90;;;;;;6202760;23;20360;-83
2021/12/20 10:52:40;;;;;;;;;;;3.80;99.90;;;;;;6225124;22;20028;-84
2021/12/20 10:55:43;;;;;;;56.80;26.00;;;3.90;99.90;;;;;;6221018;23;20004;-82
2021/12/20 10:58:39;;;;;;;57.17;27.95;;;4.10;99.90;;;;;;6222189;23;20058;-83
2021/12/20 11:04:48;;;;;;;41.97;21.58;;;4.60;99.90;;;;;;6228073;23;20296;-84
2021/12/20 11:11:09;;;;;;;48.15;24.50;;;4.70;99.90;;;;;;6227485;23;20346;-84
2021/12/20 11:14:02;;;;;;;45.78;22.15;;;4.90;99.90;;;;;;6245046;23;20494;-84
2021/12/20 11:16:53;;;;;;;39.35;21.83;;;5.20;99.90;;;;;;6205087;23;20076;-84
2021/12/20 11:19:48;;;;;;;35.00;17.80;;;5.50;99.90;;;;;;6235197;23;20020;-89
2021/12/20 11:22:36;;;;;;;32.78;15.90;;;5.50;99.90;;;;;;6236637;23;20028;-89
2021/12/20 11:25:29;;;;;;;30.33;16.17;;;5.50;99.90;;;;;;6227032;23;20032;-87
2021/12/20 11:28:20;;;;;;;30.83;15.13;;;6.70;99.90;;;;;;6210897;23;20027;-89
2021/12/20 11:31:09;;;;;;;35.20;18.38;;;6.50;99.90;;;;;;6229564;23;20044;-86
2021/12/20 11:34:05;;;;;;;28.08;15.32;;;5.90;99.90;;;;;;6208760;23;20036;-88
2021/12/20 11:37:17;;;;;;;26.58;13.00;;;5.90;99.90;;;;;;6110561;23;20132;-87
2021/12/20 11:40:21;;;;;;;20.15;11.25;;;7.80;99.90;;;;;;6110550;23;20065;-89
2021/12/20 11:43:35;;;;;;;19.88;12.10;;;8.80;99.90;;;;;;6013861;23;20056;-88
2021/12/20 11:46:41;;;;;;;18.45;10.02;;;8.70;99.90;;;;;;6012210;23;20038;-85
2021/12/20 11:49:34;;;;;;;16.98;7.88;;;9.30;99.90;;;;;;6014261;23;20098;-88
2021/12/20 11:52:34;;;;;;;17.33;9.55;;;10.70;99.90;;;;;;5988283;23;20111;-87
2021/12/20 11:55:30;;;;;;;15.85;8.63;;;12.00;95.20;;;;;;6001577;23;20160;-90
2021/12/20 11:58:33;;;;;;;16.25;8.93;;;12.30;91.20;;;;;;5995572;23;20149;-90
2021/12/20 12:01:25;;;;;;;14.30;8.27;;;13.10;84.00;;;;;;6163141;23;20024;-91
2021/12/20 12:04:20;;;;;;;19.65;11.23;;;13.80;84.70;;;;;;6214364;23;20028;-90
2021/12/20 12:07:39;;;;;;;17.02;8.73;;;14.30;74.10;;;;;;6240544;23;20042;-89
2021/12/20 12:10:38;;;;;;;11.82;7.65;;;14.20;70.90;;;;;;6239520;23;20024;-89
2021/12/20 12:18:03;;;;;;;15.48;9.20;;;12.30;74.90;;;;;;6266880;23;20082;-89
2021/12/20 12:21:07;;;;;;;16.60;8.63;;;11.50;79.20;;;;;;6266683;23;20083;-88
2021/12/20 12:24:16;;;;;;;17.58;10.10;;;11.80;77.80;;;;;;6243938;23;20038;-88
2021/12/20 12:27:26;;;;;;;17.23;10.18;;;11.60;77.10;;;;;;6229811;23;20335;-85
2021/12/20 12:30:30;;;;;;;22.23;10.25;;;10.80;81.70;;;;;;6226489;23;20020;-89
2021/12/20 12:33:38;;;;;;;20.70;11.18;;;9.70;87.60;;;;;;6226376;23;20079;-87
2021/12/20 12:36:40;;;;;;;23.20;12.18;;;8.50;94.10;;;;;;6224733;23;20028;-89
2021/12/20 12:39:37;;;;;;;20.73;11.15;;;7.70;99.90;;;;;;6226757;23;20460;-87
2021/12/20 12:46:47;;;;;;;24.73;12.95;;;6.20;99.90;;;;;;6105271;23;20301;-89
2021/12/20 12:49:48;;;;;;;30.75;13.90;;;5.90;99.90;;;;;;6155568;23;20415;-87
2021/12/20 12:52:47;;;;;;;21.60;12.02;;;6.50;99.90;;;;;;6225377;23;20035;-89
2021/12/20 12:55:40;;;;;;;21.88;12.32;;;7.80;99.90;;;;;;6212788;23;20020;-86
2021/12/20 12:58:34;;;;;;;37.05;19.33;;;9.30;99.90;;;;;;6193442;23;20079;-86
2021/12/20 13:02:00;;;;;;;21.48;11.10;;;10.70;99.90;;;;;;6232845;23;20020;-86
2021/12/20 13:05:14;;;;;;;26.65;12.38;;;10.10;97.10;;;;;;6226407;23;20123;-90
2021/12/20 13:08:11;;;;;;;20.70;10.40;;;9.80;98.60;;;;;;6245412;23;20023;-87
2021/12/20 13:11:24;;;;;;;17.35;8.77;;;11.00;93.80;;;;;;6206406;23;20391;-89
2021/12/20 13:14:19;;;;;;;19.25;9.68;;;11.90;85.20;;;;;;6248956;23;20040;-88
2021/12/20 13:17:28;;;;;;;16.30;8.30;;;12.10;80.50;;;;;;6224640;23;20070;-86
2021/12/20 13:20:35;;;;;;;16.17;9.02;;;12.40;78.00;;;;;;6225083;23;20032;-88
2021/12/20 13:23:31;;;;;;;16.77;9.02;;;11.60;74.70;;;;;;6230040;23;20482;-92
2021/12/20 13:26:54;;;;;;;21.88;12.27;;;9.90;83.90;;;;;;6240421;23;20031;-89
2021/12/20 13:30:08;;;;;;;21.13;10.13;;;8.70;90.70;;;;;;6240665;23;20074;-88
2021/12/20 13:33:20;;;;;;;19.52;10.25;;;7.50;95.70;;;;;;6247208;23;20043;-89
2021/12/20 13:36:24;;;;;;;15.23;8.20;;;6.90;99.90;;;;;;6266856;22;20008;-89
2021/12/20 13:39:41;;;;;;;20.98;10.02;;;6.30;99.90;;;;;;6129747;23;20060;-89
2021/12/20 13:42:50;;;;;;;23.55;12.23;;;6.00;99.90;;;;;;6142047;23;20045;-87
2021/12/20 13:45:50;;;;;;;26.52;11.35;;;5.70;99.90;;;;;;6121115;23;20040;-89
2021/12/20 13:48:59;;;;;;;29.85;11.98;;;5.40;99.90;;;;;;6124724;23;20069;-89
2021/12/20 13:52:07;;;;;;;25.10;11.57;;;5.30;99.90;;;;;;6113427;23;20026;-86
2021/12/20 13:54:57;;;;;;;23.58;11.77;;;5.30;99.90;;;;;;6111923;23;20100;-86
2021/12/20 13:58:09;;;;;;;27.35;12.20;;;5.10;99.90;;;;;;6124227;23;20065;-88
2021/12/20 14:01:37;;;;;;;20.38;11.52;;;5.00;99.90;;;;;;6129969;23;20029;-89
2021/12/20 14:05:14;;;;;;;26.15;11.32;;;4.90;99.90;;;;;;6130680;23;20009;-89
2021/12/20 14:08:23;;;;;;;25.20;12.45;;;4.80;99.90;;;;;;6146702;23;20022;-89
2021/12/20 14:28:26;;;;;;;28.85;12.93;;;4.10;99.90;;;;;;6091043;23;20025;-88
2021/12/20 14:31:50;;;;;;;27.15;13.30;;;4.00;99.90;;;;;;6138543;23;20029;-88
2021/12/20 14:43:15;;;;;;;27.08;13.40;;;3.70;99.90;;;;;;6182953;22;20487;-86
2021/12/20 14:46:49;;;;;;;28.17;14.40;;;3.60;99.90;;;;;;6149493;23;20025;-89
2021/12/20 14:49:58;;;;;;;31.90;13.77;;;3.60;99.90;;;;;;6196785;23;20035;-88
2021/12/20 14:52:48;;;;;;;35.50;13.70;;;3.50;99.90;;;;;;6196324;23;20082;-88
2021/12/20 14:55:58;;;;;;;34.55;14.30;;;3.50;99.90;;;;;;6187880;23;20029;-88
2021/12/20 14:59:05;;;;;;;35.70;13.90;;;3.40;99.90;;;;;;6209515;23;20035;-89
2021/12/20 15:05:33;;;;;;;31.77;14.82;;;3.20;99.90;;;;;;6230305;23;20031;-88
2021/12/20 15:13:24;;;;;;;;;;;;;;;;;;;;;
2021/12/20 15:30:21;;;;;;;;;;;;;;;;;;;;;
2021/12/20 15:33:38;;;;;;;31.30;15.63;;;1.90;99.90;;;;;;6152738;23;20381;-88
2021/12/20 15:36:33;;;;;;;37.08;15.20;;;1.70;99.90;;;;;;6210713;23;20094;-88
2021/12/20 15:39:22;;;;;;;;;;;1.60;99.90;;;;;;6231721;23;20084;-88
2021/12/20 15:42:17;;;;;;;47.08;18.70;;;1.50;99.90;;;;;;6240441;23;19923;-88
2021/12/20 15:45:05;;;;;;;41.97;17.15;;;1.40;99.90;;;;;;6239989;23;20020;-88
2021/12/20 15:47:57;;;;;;;39.88;18.50;;;1.20;99.90;;;;;;6234948;23;20298;-86
2021/12/20 15:50:46;;;;;;;46.60;20.75;;;1.20;99.90;;;;;;6202976;22;20039;-85
2021/12/20 15:53:33;;;;;;;41.53;19.42;;;1.10;99.90;;;;;;6245178;23;20020;-88
2021/12/20 15:56:33;;;;;;;38.58;15.38;;;1.10;99.90;;;;;;6219641;23;20026;-85
2021/12/20 15:59:38;;;;;;;32.20;15.43;;;1.00;99.90;;;;;;6241508;23;20024;-86
2021/12/20 16:02:28;;;;;;;35.15;14.77;;;0.90;99.90;;;;;;6236230;23;20380;-86
2021/12/20 16:05:16;;;;;;;37.50;15.57;;;0.90;99.90;;;;;;6189775;23;20078;-86
2021/12/20 16:08:04;;;;;;;37.80;14.82;;;0.80;99.90;;;;;;6188260;23;20046;-86
2021/12/20 16:11:09;;;;;;;31.67;13.95;;;0.70;99.90;;;;;;6220000;23;20087;-87
2021/12/20 16:14:00;;;;;;;33.70;13.80;;;0.60;99.90;;;;;;6209959;23;20078;-85
2021/12/20 16:16:47;;;;;;;36.33;16.17;;;0.50;99.90;;;;;;6212198;23;20027;-85
2021/12/20 16:19:36;;;;;;;38.72;16.00;;;0.40;99.90;;;;;;6229342;23;20028;-85
2021/12/20 16:22:25;;;;;;;44.60;15.80;;;0.30;99.90;;;;;;6228851;23;20031;-86
2021/12/20 16:25:15;;;;;;;32.83;15.05;;;0.20;99.90;;;;;;6233423;23;20032;-85
2021/12/20 16:28:03;;;;;;;35.40;14.30;;;0.20;99.90;;;;;;6229420;23;20054;-85
2021/12/20 16:30:54;;;;;;;39.25;14.55;;;0.10;99.90;;;;;;6228234;23;20039;-87
2021/12/20 16:33:42;;;;;;;41.70;15.88;;;0.00;99.90;;;;;;6192930;23;20038;-87
2021/12/20 16:36:31;;;;;;;34.58;14.07;;;-0.10;99.90;;;;;;6239453;23;20020;-87
2021/12/20 16:39:20;;;;;;;37.72;14.40;;;-0.10;99.90;;;;;;6236019;23;20024;-87
2021/12/20 16:42:08;;;;;;;39.85;14.43;;;-0.10;99.90;;;;;;6244455;22;20126;-88
2021/12/20 16:44:57;;;;;;;32.17;14.52;;;-0.20;99.90;;;;;;6222297;23;20024;-87
2021/12/20 16:47:56;;;;;;;31.67;13.55;;;-0.20;99.90;;;;;;6242777;23;20023;-88
2021/12/20 16:50:55;;;;;;;34.50;13.38;;;-0.30;99.90;;;;;;6257852;23;20102;-88
2021/12/20 16:53:45;;;;;;;30.30;12.10;;;-0.30;99.90;;;;;;6238360;23;20083;-87
2021/12/20 16:56:33;;;;;;;34.08;13.23;;;-0.40;99.90;;;;;;6230178;23;20076;-89
2021/12/20 16:59:20;;;;;;;29.80;12.93;;;-0.50;99.90;;;;;;6205373;23;20028;-86
2021/12/20 17:02:19;;;;;;;34.28;14.25;;;-0.60;99.90;;;;;;6205880;23;20020;-88
2021/12/20 17:05:10;;;;;;;34.25;12.65;;;-0.60;99.90;;;;;;6225146;23;20411;-85
2021/12/20 17:07:58;;;;;;;35.10;13.30;;;-0.70;99.90;;;;;;6204088;23;20075;-85
2021/12/20 17:10:52;;;;;;;38.58;14.05;;;-0.60;99.90;;;;;;6227400;23;20090;-86
2021/12/20 17:13:41;;;;;;;29.25;12.73;;;-0.70;99.90;;;;;;6224532;23;20039;-87
2021/12/20 17:16:30;;;;;;;33.28;14.32;;;-0.70;99.90;;;;;;6204427;23;20076;-87
2021/12/20 17:19:17;;;;;;;37.33;14.13;;;-0.70;99.90;;;;;;6183402;23;20050;-87
2021/12/20 17:22:08;;;;;;;52.85;19.60;;;-0.70;99.90;;;;;;6225471;23;20082;-89
2021/12/20 17:24:56;;;;;;;59.15;19.10;;;-0.80;99.90;;;;;;6224653;23;20035;-87
2021/12/20 17:27:45;;;;;;;41.22;18.90;;;-0.80;99.90;;;;;;6225198;23;20031;-86
2021/12/20 17:30:33;;;;;;;42.60;18.40;;;-0.90;99.90;;;;;;6206430;23;20086;-85
2021/12/20 17:33:22;;;;;;;51.65;23.23;;;-1.00;99.90;;;;;;6224577;23;20111;-86
2021/12/20 17:36:13;;;;;;;48.88;22.48;;;-1.10;99.90;;;;;;6248295;22;20043;-85
2021/12/20 17:39:11;;;;;;;60.13;24.88;;;-1.10;99.90;;;;;;6225984;23;20032;-86
2021/12/20 17:42:00;;;;;;;50.97;23.60;;;-1.20;99.90;;;;;;6225733;22;20024;-86
2021/12/20 17:44:56;;;;;;;49.53;22.50;;;-1.30;99.90;;;;;;6223237;23;20023;-86
2021/12/20 17:47:46;;;;;;;51.53;22.08;;;-1.40;99.90;;;;;;6224108;23;20024;-87
2021/12/20 17:50:44;;;;;;;47.55;21.00;;;-1.40;99.90;;;;;;6225594;23;20047;-85
2021/12/20 17:53:33;;;;;;;49.20;21.95;;;-1.50;99.90;;;;;;6223682;23;20032;-86
2021/12/20 17:56:24;;;;;;;64.07;26.13;;;-1.50;99.90;;;;;;6187768;23;20035;-85
2021/12/20 17:59:13;;;;;;;58.65;24.05;;;-1.60;99.90;;;;;;6207003;23;20036;-82
2021/12/20 18:02:01;;;;;;;58.28;25.00;;;-1.60;99.90;;;;;;6247662;23;20106;-87
2021/12/20 18:04:58;;;;;;;64.05;27.58;;;-1.60;99.90;;;;;;6208899;23;20035;-87
2021/12/20 18:07:47;;;;;;;73.43;27.92;;;-1.60;99.90;;;;;;6224390;23;20090;-86
2021/12/20 18:10:39;;;;;;;58.70;24.08;;;-1.60;99.90;;;;;;6248864;23;20154;-88
2021/12/20 18:13:34;;;;;;;56.92;22.95;;;-1.60;99.90;;;;;;6228786;23;20024;-88
2021/12/20 18:16:25;;;;;;;61.55;22.17;;;-1.40;99.90;;;;;;6191706;23;20039;-88
2021/12/20 18:19:20;;;;;;;59.45;21.42;;;-1.40;99.90;;;;;;6214265;23;20028;-86
2021/12/20 18:22:19;;;;;;;60.50;22.17;;;-1.30;99.90;;;;;;6220299;23;20020;-90